This is the latest recevied weather packets stored in our database for station/object DL8TF-13. If no packets are shown the sender has not sent any weather packets the latest 10 day(s).
| Time | Temp. | Humidity | Pressure | Rain* | Wind** | Luminosity | Snow |
|---|---|---|---|---|---|---|---|
| 1777686217 | 10° C | 58% | 991 hPa | - | - | - | - |
| 1777685617 | 10° C | 58% | 991 hPa | - | - | - | - |
| 1777685017 | 10° C | 60% | 991 hPa | - | - | - | - |
| 1777684417 | 10° C | 58% | 991 hPa | - | - | - | - |
| 1777683817 | 10° C | 60% | 991 hPa | - | - | - | - |
| 1777683217 | 10° C | 62% | 992 hPa | - | - | - | - |
| 1777682616 | 10° C | 59% | 992 hPa | - | - | - | - |
| 1777682016 | 11.11° C | 55% | 992 hPa | - | - | - | - |
| 1777681416 | 11.11° C | 55% | 992 hPa | - | - | - | - |
| 1777680816 | 10.56° C | 59% | 992 hPa | - | - | - | - |
| 1777680216 | 10.56° C | 58% | 992 hPa | - | - | - | - |
| 1777679616 | 11.11° C | 57% | 992 hPa | - | - | - | - |
| 1777679016 | 11.67° C | 56% | 992 hPa | - | - | - | - |
| 1777678416 | 11.67° C | 54% | 992 hPa | - | - | - | - |
| 1777677816 | 11.11° C | 57% | 992 hPa | - | - | - | - |
| 1777677216 | 11.67° C | 56% | 992 hPa | - | - | - | - |
| 1777676616 | 11.67° C | 54% | 992 hPa | - | - | - | - |
| 1777676016 | 12.78° C | 51% | 992 hPa | - | - | - | - |
| 1777675416 | 12.78° C | 50% | 992 hPa | - | - | - | - |
| 1777674816 | 12.78° C | 51% | 992 hPa | - | - | - | - |
| 1777674217 | 12.78° C | 52% | 992 hPa | - | - | - | - |
| 1777673616 | 12.78° C | 50% | 992 hPa | - | - | - | - |
| 1777673016 | 13.89° C | 47% | 992 hPa | - | - | - | - |
| 1777672415 | 14.44° C | 45% | 992 hPa | - | - | - | - |
| 1777671815 | 14.44° C | 46% | 992 hPa | - | - | - | - |
* Rain since midnight (hover to see other rain measurements)
** Current wind speed in m/s (hover to see current wind gust speed)